sensor_id;sensor_type;location;lat;lon;timestamp;P1;durP1;ratioP1;P2;durP2;ratioP2
2996;SDS011;1508;48.744;9.110;2022-09-14T00:00:38;4.22;;;2.00;;
2996;SDS011;1508;48.744;9.110;2022-09-14T00:03:24;2.95;;;2.13;;
2996;SDS011;1508;48.744;9.110;2022-09-14T00:06:12;3.88;;;2.25;;
2996;SDS011;1508;48.744;9.110;2022-09-14T00:08:59;2.80;;;1.90;;
2996;SDS011;1508;48.744;9.110;2022-09-14T00:11:46;2.72;;;1.85;;
2996;SDS011;1508;48.744;9.110;2022-09-14T00:14:32;3.40;;;1.90;;
2996;SDS011;1508;48.744;9.110;2022-09-14T00:17:18;3.28;;;2.10;;
2996;SDS011;1508;48.744;9.110;2022-09-14T00:20:04;2.13;;;1.90;;
2996;SDS011;1508;48.744;9.110;2022-09-14T00:22:50;3.00;;;2.10;;
2996;SDS011;1508;48.744;9.110;2022-09-14T00:25:36;3.53;;;2.10;;
2996;SDS011;1508;48.744;9.110;2022-09-14T00:28:21;3.90;;;2.00;;
2996;SDS011;1508;48.744;9.110;2022-09-14T00:31:07;6.68;;;2.50;;
2996;SDS011;1508;48.744;9.110;2022-09-14T00:33:53;4.67;;;1.87;;
2996;SDS011;1508;48.744;9.110;2022-09-14T00:36:41;3.97;;;2.43;;
2996;SDS011;1508;48.744;9.110;2022-09-14T00:39:28;5.63;;;2.33;;
2996;SDS011;1508;48.744;9.110;2022-09-14T00:42:14;3.85;;;2.17;;
2996;SDS011;1508;48.744;9.110;2022-09-14T00:45:05;4.97;;;2.30;;
2996;SDS011;1508;48.744;9.110;2022-09-14T00:47:57;5.10;;;2.38;;
2996;SDS011;1508;48.744;9.110;2022-09-14T00:50:43;5.88;;;2.20;;
2996;SDS011;1508;48.744;9.110;2022-09-14T00:53:30;5.20;;;2.47;;
2996;SDS011;1508;48.744;9.110;2022-09-14T00:56:16;3.90;;;2.20;;
2996;SDS011;1508;48.744;9.110;2022-09-14T00:59:04;3.83;;;2.40;;
2996;SDS011;1508;48.744;9.110;2022-09-14T01:01:56;3.38;;;2.38;;
2996;SDS011;1508;48.744;9.110;2022-09-14T01:04:42;4.40;;;2.10;;
2996;SDS011;1508;48.744;9.110;2022-09-14T01:07:50;3.22;;;2.15;;
2996;SDS011;1508;48.744;9.110;2022-09-14T01:10:55;3.70;;;2.40;;
2996;SDS011;1508;48.744;9.110;2022-09-14T01:20:26;4.45;;;2.40;;
2996;SDS011;1508;48.744;9.110;2022-09-14T01:23:31;3.90;;;2.50;;
2996;SDS011;1508;48.744;9.110;2022-09-14T01:29:48;10.18;;;3.88;;
2996;SDS011;1508;48.744;9.110;2022-09-14T01:33:23;7.07;;;2.60;;
2996;SDS011;1508;48.744;9.110;2022-09-14T01:35:55;6.55;;;2.60;;
2996;SDS011;1508;48.744;9.110;2022-09-14T01:38:45;5.60;;;2.83;;
2996;SDS011;1508;48.744;9.110;2022-09-14T01:41:34;6.68;;;3.20;;
2996;SDS011;1508;48.744;9.110;2022-09-14T01:44:24;6.22;;;3.50;;
2996;SDS011;1508;48.744;9.110;2022-09-14T01:47:21;8.52;;;3.60;;
2996;SDS011;1508;48.744;9.110;2022-09-14T01:53:34;7.93;;;4.03;;
2996;SDS011;1508;48.744;9.110;2022-09-14T01:56:26;9.20;;;4.00;;
2996;SDS011;1508;48.744;9.110;2022-09-14T01:59:22;8.20;;;4.55;;
2996;SDS011;1508;48.744;9.110;2022-09-14T02:02:16;9.43;;;4.00;;
2996;SDS011;1508;48.744;9.110;2022-09-14T02:08:07;5.68;;;3.47;;
2996;SDS011;1508;48.744;9.110;2022-09-14T02:10:53;6.18;;;3.17;;
2996;SDS011;1508;48.744;9.110;2022-09-14T02:13:39;6.15;;;3.97;;
2996;SDS011;1508;48.744;9.110;2022-09-14T02:16:25;5.75;;;3.20;;
2996;SDS011;1508;48.744;9.110;2022-09-14T02:19:14;4.40;;;3.20;;
2996;SDS011;1508;48.744;9.110;2022-09-14T02:22:00;5.40;;;3.30;;
2996;SDS011;1508;48.744;9.110;2022-09-14T02:24:46;7.43;;;3.60;;
2996;SDS011;1508;48.744;9.110;2022-09-14T02:27:32;5.40;;;3.20;;
2996;SDS011;1508;48.744;9.110;2022-09-14T02:30:18;10.32;;;4.03;;
2996;SDS011;1508;48.744;9.110;2022-09-14T02:36:23;6.53;;;3.75;;
2996;SDS011;1508;48.744;9.110;2022-09-14T02:40:17;4.25;;;3.20;;
2996;SDS011;1508;48.744;9.110;2022-09-14T02:48:52;5.20;;;3.80;;
2996;SDS011;1508;48.744;9.110;2022-09-14T02:52:01;5.07;;;3.55;;
2996;SDS011;1508;48.744;9.110;2022-09-14T02:54:58;6.28;;;3.85;;
2996;SDS011;1508;48.744;9.110;2022-09-14T03:00:50;6.83;;;3.30;;
2996;SDS011;1508;48.744;9.110;2022-09-14T03:03:39;6.38;;;3.80;;
2996;SDS011;1508;48.744;9.110;2022-09-14T03:06:25;5.90;;;3.90;;
2996;SDS011;1508;48.744;9.110;2022-09-14T03:09:11;5.75;;;3.80;;
2996;SDS011;1508;48.744;9.110;2022-09-14T03:11:57;4.10;;;3.70;;
2996;SDS011;1508;48.744;9.110;2022-09-14T03:14:43;6.05;;;3.60;;
2996;SDS011;1508;48.744;9.110;2022-09-14T03:17:28;5.38;;;3.80;;
2996;SDS011;1508;48.744;9.110;2022-09-14T03:20:15;6.88;;;4.30;;
2996;SDS011;1508;48.744;9.110;2022-09-14T03:23:02;6.65;;;4.15;;
2996;SDS011;1508;48.744;9.110;2022-09-14T03:25:49;4.80;;;3.75;;
2996;SDS011;1508;48.744;9.110;2022-09-14T03:28:35;6.63;;;4.38;;
2996;SDS011;1508;48.744;9.110;2022-09-14T03:31:22;9.73;;;5.10;;
2996;SDS011;1508;48.744;9.110;2022-09-14T03:34:08;10.82;;;5.10;;
2996;SDS011;1508;48.744;9.110;2022-09-14T03:36:55;8.95;;;5.25;;
2996;SDS011;1508;48.744;9.110;2022-09-14T03:39:40;9.70;;;5.43;;
2996;SDS011;1508;48.744;9.110;2022-09-14T03:42:26;9.13;;;6.40;;
2996;SDS011;1508;48.744;9.110;2022-09-14T03:45:13;10.90;;;5.28;;
2996;SDS011;1508;48.744;9.110;2022-09-14T03:48:00;8.63;;;4.90;;
2996;SDS011;1508;48.744;9.110;2022-09-14T03:50:46;7.07;;;5.50;;
2996;SDS011;1508;48.744;9.110;2022-09-14T03:53:31;7.30;;;5.65;;
2996;SDS011;1508;48.744;9.110;2022-09-14T03:56:18;8.03;;;4.87;;
2996;SDS011;1508;48.744;9.110;2022-09-14T03:59:09;7.70;;;4.87;;
2996;SDS011;1508;48.744;9.110;2022-09-14T04:01:54;8.38;;;5.32;;
2996;SDS011;1508;48.744;9.110;2022-09-14T04:04:40;8.88;;;5.45;;
2996;SDS011;1508;48.744;9.110;2022-09-14T04:07:26;8.10;;;5.60;;
2996;SDS011;1508;48.744;9.110;2022-09-14T04:10:12;7.53;;;4.63;;
2996;SDS011;1508;48.744;9.110;2022-09-14T04:12:58;6.20;;;4.78;;
2996;SDS011;1508;48.744;9.110;2022-09-14T04:15:44;6.07;;;4.55;;
2996;SDS011;1508;48.744;9.110;2022-09-14T04:18:40;7.45;;;4.38;;
2996;SDS011;1508;48.744;9.110;2022-09-14T04:21:27;9.38;;;4.85;;
2996;SDS011;1508;48.744;9.110;2022-09-14T04:24:12;7.33;;;4.90;;
2996;SDS011;1508;48.744;9.110;2022-09-14T04:26:58;9.53;;;5.27;;
2996;SDS011;1508;48.744;9.110;2022-09-14T04:29:44;10.05;;;6.78;;
2996;SDS011;1508;48.744;9.110;2022-09-14T04:32:33;9.40;;;6.03;;
2996;SDS011;1508;48.744;9.110;2022-09-14T04:35:22;7.82;;;5.30;;
2996;SDS011;1508;48.744;9.110;2022-09-14T04:38:08;6.88;;;4.47;;
2996;SDS011;1508;48.744;9.110;2022-09-14T04:40:54;9.13;;;4.70;;
2996;SDS011;1508;48.744;9.110;2022-09-14T04:43:41;7.80;;;5.40;;
2996;SDS011;1508;48.744;9.110;2022-09-14T04:46:29;12.45;;;5.07;;
2996;SDS011;1508;48.744;9.110;2022-09-14T04:49:16;9.75;;;5.18;;
2996;SDS011;1508;48.744;9.110;2022-09-14T04:52:02;6.93;;;4.70;;
2996;SDS011;1508;48.744;9.110;2022-09-14T04:54:48;6.65;;;4.20;;
2996;SDS011;1508;48.744;9.110;2022-09-14T04:57:33;6.35;;;4.68;;
2996;SDS011;1508;48.744;9.110;2022-09-14T05:00:19;6.32;;;4.65;;
2996;SDS011;1508;48.744;9.110;2022-09-14T05:03:05;6.22;;;4.55;;
2996;SDS011;1508;48.744;9.110;2022-09-14T05:05:51;6.10;;;4.20;;
2996;SDS011;1508;48.744;9.110;2022-09-14T05:08:37;6.05;;;4.10;;
2996;SDS011;1508;48.744;9.110;2022-09-14T05:11:24;5.10;;;4.60;;
2996;SDS011;1508;48.744;9.110;2022-09-14T05:14:12;6.80;;;4.30;;
2996;SDS011;1508;48.744;9.110;2022-09-14T05:16:58;5.40;;;4.72;;
2996;SDS011;1508;48.744;9.110;2022-09-14T05:19:44;5.25;;;4.57;;
2996;SDS011;1508;48.744;9.110;2022-09-14T05:22:30;7.10;;;5.70;;
2996;SDS011;1508;48.744;9.110;2022-09-14T05:25:16;6.60;;;5.25;;
2996;SDS011;1508;48.744;9.110;2022-09-14T05:28:02;6.50;;;5.50;;
2996;SDS011;1508;48.744;9.110;2022-09-14T05:30:48;8.95;;;5.90;;
2996;SDS011;1508;48.744;9.110;2022-09-14T05:33:34;5.72;;;5.10;;
2996;SDS011;1508;48.744;9.110;2022-09-14T05:36:20;8.18;;;5.00;;
2996;SDS011;1508;48.744;9.110;2022-09-14T05:39:07;8.95;;;4.90;;
2996;SDS011;1508;48.744;9.110;2022-09-14T05:41:56;7.45;;;4.35;;
2996;SDS011;1508;48.744;9.110;2022-09-14T05:44:41;9.27;;;4.50;;
2996;SDS011;1508;48.744;9.110;2022-09-14T05:47:28;5.68;;;4.30;;
2996;SDS011;1508;48.744;9.110;2022-09-14T05:50:14;7.35;;;5.60;;
2996;SDS011;1508;48.744;9.110;2022-09-14T05:53:00;6.97;;;4.20;;
2996;SDS011;1508;48.744;9.110;2022-09-14T05:55:46;6.35;;;4.70;;
2996;SDS011;1508;48.744;9.110;2022-09-14T05:58:32;7.20;;;4.57;;
2996;SDS011;1508;48.744;9.110;2022-09-14T06:01:20;7.03;;;5.15;;
2996;SDS011;1508;48.744;9.110;2022-09-14T06:04:07;9.27;;;4.80;;
2996;SDS011;1508;48.744;9.110;2022-09-14T06:06:55;7.75;;;4.55;;
2996;SDS011;1508;48.744;9.110;2022-09-14T06:09:41;6.72;;;4.68;;
2996;SDS011;1508;48.744;9.110;2022-09-14T06:12:27;5.47;;;4.30;;
2996;SDS011;1508;48.744;9.110;2022-09-14T06:15:12;7.40;;;4.63;;
2996;SDS011;1508;48.744;9.110;2022-09-14T06:17:58;6.88;;;4.70;;
2996;SDS011;1508;48.744;9.110;2022-09-14T06:20:50;6.82;;;4.55;;
2996;SDS011;1508;48.744;9.110;2022-09-14T06:23:36;6.97;;;4.28;;
2996;SDS011;1508;48.744;9.110;2022-09-14T06:26:22;6.90;;;4.60;;
2996;SDS011;1508;48.744;9.110;2022-09-14T06:29:08;5.30;;;4.32;;
2996;SDS011;1508;48.744;9.110;2022-09-14T06:31:54;7.47;;;4.68;;
2996;SDS011;1508;48.744;9.110;2022-09-14T06:34:40;5.60;;;3.90;;
2996;SDS011;1508;48.744;9.110;2022-09-14T06:37:26;6.40;;;4.60;;
2996;SDS011;1508;48.744;9.110;2022-09-14T06:40:11;5.32;;;4.10;;
2996;SDS011;1508;48.744;9.110;2022-09-14T06:42:58;8.82;;;4.07;;
2996;SDS011;1508;48.744;9.110;2022-09-14T06:45:53;4.50;;;3.77;;
2996;SDS011;1508;48.744;9.110;2022-09-14T06:48:44;4.85;;;4.05;;
2996;SDS011;1508;48.744;9.110;2022-09-14T06:51:36;5.30;;;3.60;;
2996;SDS011;1508;48.744;9.110;2022-09-14T06:54:23;5.70;;;3.50;;
2996;SDS011;1508;48.744;9.110;2022-09-14T06:57:09;4.20;;;3.40;;
2996;SDS011;1508;48.744;9.110;2022-09-14T06:59:55;4.65;;;3.25;;
2996;SDS011;1508;48.744;9.110;2022-09-14T07:02:41;5.28;;;3.88;;
2996;SDS011;1508;48.744;9.110;2022-09-14T07:05:27;5.40;;;3.20;;
2996;SDS011;1508;48.744;9.110;2022-09-14T07:08:13;6.47;;;3.70;;
2996;SDS011;1508;48.744;9.110;2022-09-14T07:10:59;5.80;;;3.88;;
2996;SDS011;1508;48.744;9.110;2022-09-14T07:13:47;5.35;;;3.10;;
2996;SDS011;1508;48.744;9.110;2022-09-14T07:16:33;6.30;;;4.03;;
2996;SDS011;1508;48.744;9.110;2022-09-14T07:19:20;5.47;;;3.70;;
2996;SDS011;1508;48.744;9.110;2022-09-14T07:22:06;3.80;;;3.20;;
2996;SDS011;1508;48.744;9.110;2022-09-14T07:24:52;4.70;;;2.88;;
2996;SDS011;1508;48.744;9.110;2022-09-14T07:27:38;5.18;;;3.50;;
2996;SDS011;1508;48.744;9.110;2022-09-14T07:30:23;5.72;;;3.60;;
2996;SDS011;1508;48.744;9.110;2022-09-14T07:33:09;4.63;;;3.60;;
2996;SDS011;1508;48.744;9.110;2022-09-14T07:36:03;7.15;;;3.65;;
2996;SDS011;1508;48.744;9.110;2022-09-14T07:38:53;5.18;;;3.30;;
2996;SDS011;1508;48.744;9.110;2022-09-14T07:41:39;5.60;;;3.40;;
2996;SDS011;1508;48.744;9.110;2022-09-14T07:44:25;4.93;;;3.40;;
2996;SDS011;1508;48.744;9.110;2022-09-14T07:47:11;4.00;;;3.53;;
2996;SDS011;1508;48.744;9.110;2022-09-14T07:49:57;4.65;;;3.60;;
2996;SDS011;1508;48.744;9.110;2022-09-14T07:52:43;4.53;;;3.58;;
2996;SDS011;1508;48.744;9.110;2022-09-14T07:55:29;3.47;;;3.17;;
2996;SDS011;1508;48.744;9.110;2022-09-14T07:58:14;5.07;;;3.13;;
2996;SDS011;1508;48.744;9.110;2022-09-14T08:01:02;4.60;;;3.10;;
2996;SDS011;1508;48.744;9.110;2022-09-14T08:03:49;7.65;;;3.58;;
2996;SDS011;1508;48.744;9.110;2022-09-14T08:06:35;6.22;;;3.30;;
2996;SDS011;1508;48.744;9.110;2022-09-14T08:09:21;4.78;;;3.40;;
2996;SDS011;1508;48.744;9.110;2022-09-14T08:12:07;6.22;;;2.90;;
2996;SDS011;1508;48.744;9.110;2022-09-14T08:14:52;4.90;;;3.20;;
2996;SDS011;1508;48.744;9.110;2022-09-14T08:17:39;7.00;;;3.50;;
2996;SDS011;1508;48.744;9.110;2022-09-14T08:20:24;4.75;;;2.95;;
2996;SDS011;1508;48.744;9.110;2022-09-14T08:23:10;4.60;;;2.90;;
2996;SDS011;1508;48.744;9.110;2022-09-14T08:26:00;5.57;;;3.53;;
2996;SDS011;1508;48.744;9.110;2022-09-14T08:28:51;6.90;;;2.90;;
2996;SDS011;1508;48.744;9.110;2022-09-14T08:31:38;5.00;;;3.17;;
2996;SDS011;1508;48.744;9.110;2022-09-14T08:34:24;4.60;;;3.25;;
2996;SDS011;1508;48.744;9.110;2022-09-14T08:37:10;4.85;;;2.88;;
2996;SDS011;1508;48.744;9.110;2022-09-14T08:39:56;3.80;;;2.93;;
2996;SDS011;1508;48.744;9.110;2022-09-14T08:42:42;6.78;;;3.10;;
2996;SDS011;1508;48.744;9.110;2022-09-14T08:45:29;6.60;;;3.50;;
2996;SDS011;1508;48.744;9.110;2022-09-14T08:48:18;4.70;;;2.90;;
2996;SDS011;1508;48.744;9.110;2022-09-14T08:51:08;4.15;;;2.85;;
2996;SDS011;1508;48.744;9.110;2022-09-14T08:53:54;4.35;;;2.80;;
2996;SDS011;1508;48.744;9.110;2022-09-14T08:56:43;3.97;;;3.10;;
2996;SDS011;1508;48.744;9.110;2022-09-14T08:59:46;5.75;;;2.80;;
2996;SDS011;1508;48.744;9.110;2022-09-14T09:05:55;5.93;;;2.60;;
2996;SDS011;1508;48.744;9.110;2022-09-14T09:11:54;4.40;;;2.50;;
2996;SDS011;1508;48.744;9.110;2022-09-14T09:14:42;5.95;;;2.80;;
2996;SDS011;1508;48.744;9.110;2022-09-14T09:17:41;4.10;;;2.50;;
2996;SDS011;1508;48.744;9.110;2022-09-14T09:20:39;5.90;;;2.60;;
2996;SDS011;1508;48.744;9.110;2022-09-14T09:23:53;7.43;;;2.60;;
2996;SDS011;1508;48.744;9.110;2022-09-14T09:26:43;5.83;;;2.90;;
2996;SDS011;1508;48.744;9.110;2022-09-14T09:29:29;3.25;;;2.63;;
2996;SDS011;1508;48.744;9.110;2022-09-14T09:32:16;8.05;;;2.63;;
2996;SDS011;1508;48.744;9.110;2022-09-14T09:35:04;3.90;;;2.20;;
2996;SDS011;1508;48.744;9.110;2022-09-14T09:37:50;2.42;;;2.20;;
2996;SDS011;1508;48.744;9.110;2022-09-14T09:40:36;6.05;;;2.35;;
2996;SDS011;1508;48.744;9.110;2022-09-14T09:43:26;5.75;;;2.30;;
2996;SDS011;1508;48.744;9.110;2022-09-14T09:46:11;4.28;;;2.50;;
2996;SDS011;1508;48.744;9.110;2022-09-14T09:49:01;5.32;;;2.60;;
2996;SDS011;1508;48.744;9.110;2022-09-14T09:51:49;5.40;;;2.60;;
2996;SDS011;1508;48.744;9.110;2022-09-14T09:54:35;4.33;;;2.63;;
2996;SDS011;1508;48.744;9.110;2022-09-14T09:57:31;4.95;;;2.80;;
2996;SDS011;1508;48.744;9.110;2022-09-14T10:00:23;5.63;;;2.83;;
2996;SDS011;1508;48.744;9.110;2022-09-14T10:03:23;5.15;;;2.70;;
2996;SDS011;1508;48.744;9.110;2022-09-14T10:06:13;5.43;;;2.50;;
2996;SDS011;1508;48.744;9.110;2022-09-14T10:08:59;5.68;;;2.70;;
2996;SDS011;1508;48.744;9.110;2022-09-14T10:11:46;5.70;;;2.50;;
2996;SDS011;1508;48.744;9.110;2022-09-14T10:14:34;3.80;;;2.20;;
2996;SDS011;1508;48.744;9.110;2022-09-14T10:17:22;5.30;;;2.80;;
2996;SDS011;1508;48.744;9.110;2022-09-14T10:20:18;6.43;;;2.40;;
2996;SDS011;1508;48.744;9.110;2022-09-14T10:29:15;3.13;;;2.45;;
2996;SDS011;1508;48.744;9.110;2022-09-14T10:32:17;3.00;;;2.20;;
2996;SDS011;1508;48.744;9.110;2022-09-14T10:35:10;3.42;;;2.10;;
2996;SDS011;1508;48.744;9.110;2022-09-14T10:38:44;5.78;;;2.40;;
2996;SDS011;1508;48.744;9.110;2022-09-14T10:41:22;3.97;;;2.33;;
2996;SDS011;1508;48.744;9.110;2022-09-14T10:47:59;4.22;;;2.20;;
2996;SDS011;1508;48.744;9.110;2022-09-14T11:00:19;4.25;;;2.45;;
2996;SDS011;1508;48.744;9.110;2022-09-14T11:03:16;3.40;;;2.78;;
2996;SDS011;1508;48.744;9.110;2022-09-14T11:06:22;4.85;;;2.50;;
2996;SDS011;1508;48.744;9.110;2022-09-14T11:09:16;4.10;;;2.20;;
2996;SDS011;1508;48.744;9.110;2022-09-14T11:12:20;4.10;;;2.38;;
2996;SDS011;1508;48.744;9.110;2022-09-14T11:21:49;5.05;;;2.70;;
2996;SDS011;1508;48.744;9.110;2022-09-14T11:25:24;5.40;;;2.70;;
2996;SDS011;1508;48.744;9.110;2022-09-14T11:28:04;2.90;;;2.10;;
2996;SDS011;1508;48.744;9.110;2022-09-14T11:31:00;3.20;;;2.10;;
2996;SDS011;1508;48.744;9.110;2022-09-14T11:34:07;3.47;;;2.42;;
2996;SDS011;1508;48.744;9.110;2022-09-14T11:37:15;3.83;;;2.10;;
2996;SDS011;1508;48.744;9.110;2022-09-14T11:40:05;4.13;;;2.10;;
2996;SDS011;1508;48.744;9.110;2022-09-14T11:43:14;4.20;;;2.00;;
2996;SDS011;1508;48.744;9.110;2022-09-14T11:46:21;5.40;;;2.30;;
2996;SDS011;1508;48.744;9.110;2022-09-14T11:49:33;4.55;;;2.10;;
2996;SDS011;1508;48.744;9.110;2022-09-14T11:52:24;5.03;;;2.35;;
2996;SDS011;1508;48.744;9.110;2022-09-14T11:55:15;3.10;;;1.83;;
2996;SDS011;1508;48.744;9.110;2022-09-14T11:58:03;4.50;;;1.98;;
2996;SDS011;1508;48.744;9.110;2022-09-14T12:03:44;3.53;;;1.90;;
2996;SDS011;1508;48.744;9.110;2022-09-14T12:12:30;3.65;;;2.00;;
2996;SDS011;1508;48.744;9.110;2022-09-14T12:21:04;5.10;;;2.40;;
2996;SDS011;1508;48.744;9.110;2022-09-14T12:23:52;7.07;;;2.70;;
2996;SDS011;1508;48.744;9.110;2022-09-14T12:26:39;6.97;;;2.80;;
2996;SDS011;1508;48.744;9.110;2022-09-14T12:29:30;6.82;;;2.60;;
2996;SDS011;1508;48.744;9.110;2022-09-14T12:32:37;4.43;;;2.33;;
2996;SDS011;1508;48.744;9.110;2022-09-14T12:38:42;4.22;;;2.72;;
2996;SDS011;1508;48.744;9.110;2022-09-14T12:44:40;6.97;;;2.85;;
2996;SDS011;1508;48.744;9.110;2022-09-14T12:50:15;4.35;;;2.45;;
2996;SDS011;1508;48.744;9.110;2022-09-14T12:56:05;6.30;;;3.10;;
2996;SDS011;1508;48.744;9.110;2022-09-14T12:59:02;5.38;;;3.10;;
2996;SDS011;1508;48.744;9.110;2022-09-14T13:05:17;4.70;;;3.10;;
2996;SDS011;1508;48.744;9.110;2022-09-14T13:08:09;8.93;;;3.35;;
2996;SDS011;1508;48.744;9.110;2022-09-14T13:10:56;7.53;;;3.47;;
2996;SDS011;1508;48.744;9.110;2022-09-14T13:13:42;5.40;;;3.30;;
2996;SDS011;1508;48.744;9.110;2022-09-14T13:16:41;6.07;;;3.50;;
2996;SDS011;1508;48.744;9.110;2022-09-14T13:19:30;4.47;;;3.40;;
2996;SDS011;1508;48.744;9.110;2022-09-14T13:22:18;6.47;;;3.20;;
2996;SDS011;1508;48.744;9.110;2022-09-14T13:25:05;6.40;;;3.88;;
2996;SDS011;1508;48.744;9.110;2022-09-14T13:27:51;8.40;;;3.53;;
2996;SDS011;1508;48.744;9.110;2022-09-14T13:30:39;5.13;;;3.10;;
2996;SDS011;1508;48.744;9.110;2022-09-14T13:33:25;3.55;;;3.17;;
2996;SDS011;1508;48.744;9.110;2022-09-14T13:36:15;5.45;;;2.80;;
2996;SDS011;1508;48.744;9.110;2022-09-14T13:39:10;5.10;;;2.97;;
2996;SDS011;1508;48.744;9.110;2022-09-14T13:42:34;4.60;;;2.80;;
2996;SDS011;1508;48.744;9.110;2022-09-14T13:45:20;4.30;;;2.78;;
2996;SDS011;1508;48.744;9.110;2022-09-14T13:48:07;4.90;;;2.60;;
2996;SDS011;1508;48.744;9.110;2022-09-14T13:50:53;4.15;;;2.40;;
2996;SDS011;1508;48.744;9.110;2022-09-14T13:56:35;3.08;;;2.10;;
2996;SDS011;1508;48.744;9.110;2022-09-14T13:59:21;5.70;;;2.42;;
2996;SDS011;1508;48.744;9.110;2022-09-14T14:02:09;4.78;;;2.15;;
2996;SDS011;1508;48.744;9.110;2022-09-14T14:04:57;3.65;;;1.92;;
2996;SDS011;1508;48.744;9.110;2022-09-14T14:07:44;3.15;;;1.70;;
2996;SDS011;1508;48.744;9.110;2022-09-14T14:10:35;3.80;;;2.00;;
2996;SDS011;1508;48.744;9.110;2022-09-14T14:13:27;3.60;;;1.70;;
2996;SDS011;1508;48.744;9.110;2022-09-14T14:19:05;3.10;;;1.80;;
2996;SDS011;1508;48.744;9.110;2022-09-14T14:24:59;2.40;;;1.60;;
2996;SDS011;1508;48.744;9.110;2022-09-14T14:28:02;2.28;;;1.80;;
2996;SDS011;1508;48.744;9.110;2022-09-14T14:30:50;3.42;;;2.20;;
2996;SDS011;1508;48.744;9.110;2022-09-14T14:33:42;3.10;;;1.70;;
2996;SDS011;1508;48.744;9.110;2022-09-14T14:36:29;3.33;;;1.80;;
2996;SDS011;1508;48.744;9.110;2022-09-14T14:39:19;2.97;;;1.88;;
2996;SDS011;1508;48.744;9.110;2022-09-14T14:42:12;3.10;;;1.70;;
2996;SDS011;1508;48.744;9.110;2022-09-14T14:44:59;3.00;;;1.90;;
2996;SDS011;1508;48.744;9.110;2022-09-14T14:47:45;2.90;;;1.60;;
2996;SDS011;1508;48.744;9.110;2022-09-14T14:50:33;3.50;;;1.98;;
2996;SDS011;1508;48.744;9.110;2022-09-14T14:53:19;4.07;;;1.90;;
2996;SDS011;1508;48.744;9.110;2022-09-14T14:56:04;2.80;;;1.60;;
2996;SDS011;1508;48.744;9.110;2022-09-14T14:58:50;2.30;;;1.50;;
2996;SDS011;1508;48.744;9.110;2022-09-14T15:01:36;3.58;;;1.60;;
2996;SDS011;1508;48.744;9.110;2022-09-14T15:04:22;4.25;;;1.60;;
2996;SDS011;1508;48.744;9.110;2022-09-14T15:07:08;3.25;;;1.50;;
2996;SDS011;1508;48.744;9.110;2022-09-14T15:09:56;3.30;;;1.30;;
2996;SDS011;1508;48.744;9.110;2022-09-14T15:12:42;3.78;;;1.50;;
2996;SDS011;1508;48.744;9.110;2022-09-14T15:15:28;3.53;;;1.50;;
2996;SDS011;1508;48.744;9.110;2022-09-14T15:18:14;2.22;;;1.35;;
2996;SDS011;1508;48.744;9.110;2022-09-14T15:21:00;3.13;;;1.40;;
2996;SDS011;1508;48.744;9.110;2022-09-14T15:23:47;3.03;;;1.40;;
2996;SDS011;1508;48.744;9.110;2022-09-14T15:26:33;3.33;;;1.23;;
2996;SDS011;1508;48.744;9.110;2022-09-14T15:29:19;2.88;;;1.40;;
2996;SDS011;1508;48.744;9.110;2022-09-14T15:32:05;2.30;;;1.20;;
2996;SDS011;1508;48.744;9.110;2022-09-14T15:34:51;4.40;;;1.30;;
2996;SDS011;1508;48.744;9.110;2022-09-14T15:37:37;1.70;;;1.10;;
2996;SDS011;1508;48.744;9.110;2022-09-14T15:40:22;4.80;;;1.80;;
2996;SDS011;1508;48.744;9.110;2022-09-14T15:43:08;3.55;;;1.40;;
2996;SDS011;1508;48.744;9.110;2022-09-14T15:45:54;2.08;;;1.20;;
2996;SDS011;1508;48.744;9.110;2022-09-14T15:48:45;3.05;;;1.63;;
2996;SDS011;1508;48.744;9.110;2022-09-14T15:51:31;3.60;;;1.20;;
2996;SDS011;1508;48.744;9.110;2022-09-14T15:54:18;2.45;;;1.10;;
2996;SDS011;1508;48.744;9.110;2022-09-14T15:57:06;2.05;;;1.30;;
2996;SDS011;1508;48.744;9.110;2022-09-14T15:59:54;3.58;;;1.33;;
2996;SDS011;1508;48.744;9.110;2022-09-14T16:02:40;3.33;;;1.30;;
2996;SDS011;1508;48.744;9.110;2022-09-14T16:05:26;2.60;;;1.17;;
2996;SDS011;1508;48.744;9.110;2022-09-14T16:08:11;5.50;;;1.20;;
2996;SDS011;1508;48.744;9.110;2022-09-14T16:10:58;6.05;;;1.60;;
2996;SDS011;1508;48.744;9.110;2022-09-14T16:13:46;2.05;;;1.40;;
2996;SDS011;1508;48.744;9.110;2022-09-14T16:16:33;3.95;;;1.40;;
2996;SDS011;1508;48.744;9.110;2022-09-14T16:19:20;3.00;;;1.40;;
2996;SDS011;1508;48.744;9.110;2022-09-14T16:22:06;2.60;;;1.48;;
2996;SDS011;1508;48.744;9.110;2022-09-14T16:24:52;2.15;;;1.10;;
2996;SDS011;1508;48.744;9.110;2022-09-14T16:27:37;3.55;;;1.20;;
2996;SDS011;1508;48.744;9.110;2022-09-14T16:30:23;3.00;;;1.15;;
2996;SDS011;1508;48.744;9.110;2022-09-14T16:33:09;4.30;;;1.30;;
2996;SDS011;1508;48.744;9.110;2022-09-14T16:36:02;1.55;;;1.00;;
2996;SDS011;1508;48.744;9.110;2022-09-14T16:38:50;2.38;;;1.17;;
2996;SDS011;1508;48.744;9.110;2022-09-14T16:41:37;2.70;;;1.30;;
2996;SDS011;1508;48.744;9.110;2022-09-14T16:44:24;1.75;;;1.20;;
2996;SDS011;1508;48.744;9.110;2022-09-14T16:47:11;3.50;;;1.20;;
2996;SDS011;1508;48.744;9.110;2022-09-14T16:49:57;2.50;;;1.30;;
2996;SDS011;1508;48.744;9.110;2022-09-14T16:52:42;3.08;;;1.10;;
2996;SDS011;1508;48.744;9.110;2022-09-14T16:55:30;2.90;;;1.20;;
2996;SDS011;1508;48.744;9.110;2022-09-14T16:58:16;2.45;;;1.40;;
2996;SDS011;1508;48.744;9.110;2022-09-14T17:03:52;3.50;;;1.40;;
2996;SDS011;1508;48.744;9.110;2022-09-14T17:06:41;5.70;;;1.50;;
2996;SDS011;1508;48.744;9.110;2022-09-14T17:09:28;2.80;;;1.40;;
2996;SDS011;1508;48.744;9.110;2022-09-14T17:12:14;4.07;;;1.20;;
2996;SDS011;1508;48.744;9.110;2022-09-14T17:15:00;1.85;;;1.38;;
2996;SDS011;1508;48.744;9.110;2022-09-14T17:17:46;2.33;;;1.30;;
2996;SDS011;1508;48.744;9.110;2022-09-14T17:20:32;2.13;;;1.40;;
2996;SDS011;1508;48.744;9.110;2022-09-14T17:23:18;2.08;;;1.50;;
2996;SDS011;1508;48.744;9.110;2022-09-14T17:26:04;5.50;;;1.63;;
2996;SDS011;1508;48.744;9.110;2022-09-14T17:28:53;2.80;;;1.30;;
2996;SDS011;1508;48.744;9.110;2022-09-14T17:31:41;2.70;;;1.58;;
2996;SDS011;1508;48.744;9.110;2022-09-14T17:34:28;3.97;;;1.65;;
2996;SDS011;1508;48.744;9.110;2022-09-14T17:37:14;3.83;;;1.30;;
2996;SDS011;1508;48.744;9.110;2022-09-14T17:40:00;2.60;;;1.40;;
2996;SDS011;1508;48.744;9.110;2022-09-14T17:42:46;2.60;;;1.60;;
2996;SDS011;1508;48.744;9.110;2022-09-14T17:45:31;4.18;;;1.92;;
2996;SDS011;1508;48.744;9.110;2022-09-14T17:48:17;4.18;;;1.67;;
2996;SDS011;1508;48.744;9.110;2022-09-14T17:51:08;3.00;;;1.60;;
2996;SDS011;1508;48.744;9.110;2022-09-14T17:53:56;3.50;;;1.73;;
2996;SDS011;1508;48.744;9.110;2022-09-14T17:56:42;2.30;;;1.50;;
2996;SDS011;1508;48.744;9.110;2022-09-14T17:59:28;3.63;;;1.80;;
2996;SDS011;1508;48.744;9.110;2022-09-14T18:02:14;2.33;;;1.52;;
2996;SDS011;1508;48.744;9.110;2022-09-14T18:05:00;3.03;;;1.80;;
2996;SDS011;1508;48.744;9.110;2022-09-14T18:07:46;5.50;;;2.15;;
2996;SDS011;1508;48.744;9.110;2022-09-14T18:10:34;4.30;;;1.80;;
2996;SDS011;1508;48.744;9.110;2022-09-14T18:13:20;4.43;;;1.90;;
2996;SDS011;1508;48.744;9.110;2022-09-14T18:16:06;6.30;;;2.10;;
2996;SDS011;1508;48.744;9.110;2022-09-14T18:18:52;3.25;;;1.90;;
2996;SDS011;1508;48.744;9.110;2022-09-14T18:21:39;3.80;;;2.10;;
2996;SDS011;1508;48.744;9.110;2022-09-14T18:24:25;4.10;;;2.17;;
2996;SDS011;1508;48.744;9.110;2022-09-14T18:27:11;5.25;;;2.47;;
2996;SDS011;1508;48.744;9.110;2022-09-14T18:29:59;3.58;;;2.10;;
2996;SDS011;1508;48.744;9.110;2022-09-14T18:32:54;4.32;;;1.90;;
2996;SDS011;1508;48.744;9.110;2022-09-14T18:35:40;3.50;;;2.00;;
2996;SDS011;1508;48.744;9.110;2022-09-14T18:38:26;4.10;;;1.80;;
2996;SDS011;1508;48.744;9.110;2022-09-14T18:41:12;3.53;;;1.92;;
2996;SDS011;1508;48.744;9.110;2022-09-14T18:43:59;3.35;;;2.10;;
2996;SDS011;1508;48.744;9.110;2022-09-14T18:46:46;3.83;;;2.00;;
2996;SDS011;1508;48.744;9.110;2022-09-14T18:49:32;4.03;;;2.00;;
2996;SDS011;1508;48.744;9.110;2022-09-14T18:52:18;5.13;;;2.25;;
2996;SDS011;1508;48.744;9.110;2022-09-14T18:55:03;3.20;;;2.13;;
2996;SDS011;1508;48.744;9.110;2022-09-14T18:57:50;7.43;;;2.00;;
2996;SDS011;1508;48.744;9.110;2022-09-14T19:00:35;3.70;;;1.80;;
2996;SDS011;1508;48.744;9.110;2022-09-14T19:03:26;2.47;;;1.80;;
2996;SDS011;1508;48.744;9.110;2022-09-14T19:06:13;5.50;;;2.10;;
2996;SDS011;1508;48.744;9.110;2022-09-14T19:09:00;5.05;;;1.80;;
2996;SDS011;1508;48.744;9.110;2022-09-14T19:11:46;4.10;;;2.00;;